الصفحة الرئيسية
METAR-TAF:

METAR-TAF

مطار :

مطار بالما دي مايوركا

بالما دي مايوركا, إسبانيا

دائرة عرض: 39-33N, خط طول: 002-44E, ارتفاع: 4 متر

مراقبة الطقس الحالي

تاريخ ووقت الإصدار 33 دقيقة قبل الساعة 04:30UTC
ريح 2 عقدةمن اتجاهات متغيرة
درجة الحرارة 21°درجة مئوية
الرطوبة 94%
ضغط 1016 hPa
الرؤية 10 كم أو أكثر
الغيوم لا تقل 1500 م ولا وجود لمزنة ركامية السحاب الأسود

METAR: LEPA 180430Z VRB02KT CAVOK 21/20 Q1016 NOSIG

زمن: 07:03 (05:03 UTC)

توقعات

تاريخ ووقت الإصدار 6ساعات و 3 دقيقة قبل الساعة 23:00UTC
التوقعات صالحة من18 الساعة 00 UTC إلى 18 الساعة 24 UTC
ريح 4 عقدة من الشمال الشرقي
الرؤية 10 كم أو أكثر
غيوم قليلة على ارتفاع 2000 قدم
أصبح
من 18 الساعة 07 UTC إلى 18 الساعة 09 UTC
ريح 9 عقدة من الشرق
مؤقت
من 18 الساعة 12 UTC إلى 18 الساعة 17 UTC
ريح 10 عقدة من الجنوب/الجنوب الغربي
نظرية الاحتمالات 30% :
مؤقت
من 18 الساعة 06 UTC إلى 18 الساعة 12 UTC
غيوم قليلة على ارتفاع 9000 قدم, مزن ركامية عمودية.

TAF: LEPA 172300Z 1800/1824 04004KT 9999 FEW020 TX33/1812Z TN21/1805Z BECMG 1807/1809 10009KT TEMPO 1812/1817 21010KT PROB30 TEMPO 1806/1812 FEW090TCU

أرصاد الطقس والتوقعات من أكثر من 4000 مطار (تقارير الطقس للمطار METAR والتنبؤ بالطقس بالمطارTAF).

المحطات المتاحة هي النقط الصفراء والحمراء على الخريطة.

حرك المؤشر فوق النقطة لمعرفة اسم المحطة.

ثم انقر لمعرفة أرصاد وتوقعات الطقس.

لتغيير الخارطة: اضغط على الأزرار الخضراء مع رمز الصليب الأسود للتكبير. على الزر الأخضر مع شرطة للتصغير، أو على الأسهم الخضراء للخرائط المجاورة.


METAR-TAF: